Time;durP1;ratioP1;P1;durP2;ratioP2;P2;SDS_P1;SDS_P2;PMS_P1;PMS_P2;Temp;Humidity;BMP_temperature;BMP_pressure;BME280_temperature;BME280_humidity;BME280_pressure;Samples;Min_cycle;Max_cycle;Signal;HPM_P1;HPM_P2
2022/04/24 00:00:01;;;;;;;44.30;24.17;;;10.10;99.90;;;;;;5013396;28;20592;-58
2022/04/24 00:02:27;;;;;;;49.20;25.60;;;10.10;99.90;;;;;;5008532;28;20180;-60
2022/04/24 00:04:53;;;;;;;40.37;24.37;;;10.10;99.90;;;;;;5003504;28;20489;-59
2022/04/24 00:07:19;;;;;;;37.77;24.23;;;10.10;99.90;;;;;;5011383;28;20459;-60
2022/04/24 00:09:45;;;;;;;45.70;24.90;;;10.10;99.90;;;;;;4994262;28;20920;-60
2022/04/24 00:12:15;;;;;;;37.83;22.97;;;10.10;99.90;;;;;;4993971;28;20180;-59
2022/04/24 00:14:42;;;;;;;43.23;24.47;;;10.10;99.90;;;;;;5009070;28;20176;-60
2022/04/24 00:17:08;;;;;;;40.87;24.37;;;10.10;99.90;;;;;;5007727;28;20506;-60
2022/04/24 00:19:34;;;;;;;38.93;24.00;;;10.10;99.90;;;;;;5012257;28;20435;-60
2022/04/24 00:21:59;;;;;;;39.77;24.40;;;10.20;99.90;;;;;;5007298;28;20180;-59
2022/04/24 00:24:25;;;;;;;42.67;24.60;;;10.20;99.90;;;;;;5020410;28;20184;-60
2022/04/24 00:26:52;;;;;;;39.80;24.37;;;10.20;99.90;;;;;;5001372;28;20752;-60
2022/04/24 00:29:18;;;;;;;37.23;23.43;;;10.20;99.90;;;;;;5007483;28;20200;-59
2022/04/24 00:31:43;;;;;;;47.27;24.73;;;10.20;99.90;;;;;;5004023;28;21208;-61
2022/04/24 00:34:09;;;;;;;37.50;23.37;;;10.20;99.90;;;;;;5011696;28;20164;-59
2022/04/24 00:36:35;;;;;;;37.93;23.83;;;10.20;99.90;;;;;;5007328;28;20196;-59
2022/04/24 00:39:00;;;;;;;42.80;24.90;;;10.20;99.90;;;;;;5004943;28;20790;-59
2022/04/24 00:41:26;;;;;;;39.83;24.23;;;10.20;99.90;;;;;;5001294;28;20180;-59
2022/04/24 00:43:53;;;;;;;43.07;24.93;;;10.20;99.90;;;;;;4997404;28;20238;-60
2022/04/24 00:46:36;;;;;;;38.60;24.20;;;10.20;99.90;;;;;;4983897;28;20196;-60
2022/04/24 00:49:01;;;;;;;45.13;26.23;;;10.20;99.90;;;;;;5001357;28;20447;-59
2022/04/24 00:51:28;;;;;;;42.60;25.37;;;10.20;99.90;;;;;;5000477;28;20422;-60
2022/04/24 00:53:55;;;;;;;42.90;25.20;;;10.30;99.90;;;;;;5000550;28;20169;-60
2022/04/24 00:56:22;;;;;;;45.70;25.93;;;10.20;99.90;;;;;;4999684;28;20538;-60
2022/04/24 00:58:49;;;;;;;42.43;24.57;;;10.20;99.90;;;;;;4983191;28;20463;-59
2022/04/24 01:01:15;;;;;;;42.33;24.10;;;10.20;99.90;;;;;;4990692;28;20416;-60
2022/04/24 01:03:41;;;;;;;40.60;24.00;;;10.20;99.90;;;;;;4997784;28;20857;-60
2022/04/24 01:06:06;;;;;;;43.50;26.33;;;10.20;99.90;;;;;;4997485;28;20189;-60
2022/04/24 01:08:34;;;;;;;44.33;25.53;;;10.20;99.90;;;;;;5003752;28;20257;-60
2022/04/24 01:11:00;;;;;;;47.90;27.17;;;10.20;99.90;;;;;;5001891;28;20692;-59
2022/04/24 01:13:25;;;;;;;41.93;26.40;;;10.20;99.90;;;;;;5001682;28;20420;-60
2022/04/24 01:15:51;;;;;;;44.80;26.33;;;10.20;99.90;;;;;;4997879;28;20212;-59
2022/04/24 01:18:18;;;;;;;48.23;26.67;;;10.20;99.90;;;;;;4982400;28;20740;-60
2022/04/24 01:20:44;;;;;;;47.73;26.63;;;10.20;99.90;;;;;;5001723;28;20537;-60
2022/04/24 01:23:09;;;;;;;50.10;26.77;;;10.20;99.90;;;;;;4998261;28;20415;-60
2022/04/24 01:25:35;;;;;;;47.23;28.00;;;10.10;99.90;;;;;;4981078;28;20207;-59
2022/04/24 01:28:08;;;;;;;43.33;25.10;;;10.10;99.90;;;;;;5003114;28;20199;-60
2022/04/24 01:30:35;;;;;;;46.43;26.90;;;10.00;99.90;;;;;;4979706;28;20178;-61
2022/04/24 01:33:01;;;;;;;46.10;27.90;;;10.00;99.90;;;;;;4979602;28;20407;-59
2022/04/24 01:35:27;;;;;;;43.87;25.80;;;9.90;99.90;;;;;;4999104;28;20686;-59
2022/04/24 01:37:55;;;;;;;50.30;27.03;;;9.90;99.90;;;;;;5003530;28;20436;-60
2022/04/24 01:40:21;;;;;;;44.10;25.67;;;9.80;99.90;;;;;;5003453;28;20180;-61
2022/04/24 01:42:46;;;;;;;48.93;27.47;;;9.80;99.90;;;;;;5001713;28;20490;-60
2022/04/24 01:45:12;;;;;;;44.97;27.20;;;9.80;99.90;;;;;;5002420;28;20172;-59
2022/04/24 01:47:38;;;;;;;50.40;27.27;;;9.80;99.90;;;;;;5002001;28;20229;-60
2022/04/24 01:50:03;;;;;;;49.40;26.17;;;9.80;99.90;;;;;;4988027;28;20454;-60
2022/04/24 01:52:29;;;;;;;44.40;27.70;;;9.70;99.90;;;;;;5003666;28;20603;-61
2022/04/24 01:54:55;;;;;;;40.90;25.73;;;9.70;99.90;;;;;;5005971;28;20411;-60
2022/04/24 01:57:20;;;;;;;50.07;27.90;;;9.70;99.90;;;;;;5000586;28;20196;-61
2022/04/24 01:59:46;;;;;;;53.10;28.83;;;9.80;99.90;;;;;;5003134;28;20271;-60
2022/04/24 02:02:11;;;;;;;53.37;29.63;;;9.70;99.90;;;;;;5004821;28;20236;-61
2022/04/24 02:04:37;;;;;;;43.27;26.93;;;9.70;99.90;;;;;;5004379;28;20180;-60
2022/04/24 02:07:04;;;;;;;51.47;28.43;;;9.70;99.90;;;;;;5001659;28;20204;-61
2022/04/24 02:09:30;;;;;;;56.53;26.63;;;9.70;99.90;;;;;;5003811;28;20238;-60
2022/04/24 02:11:55;;;;;;;48.63;27.03;;;9.70;99.90;;;;;;4987011;28;20427;-60
2022/04/24 02:14:21;;;;;;;47.80;27.93;;;9.70;99.90;;;;;;5002883;28;20642;-60
2022/04/24 02:16:46;;;;;;;47.63;28.60;;;9.70;99.90;;;;;;4986954;28;20241;-61
2022/04/24 02:19:12;;;;;;;48.07;27.17;;;9.70;99.90;;;;;;5004424;28;20267;-60
2022/04/24 02:21:38;;;;;;;41.77;25.40;;;9.70;99.90;;;;;;5002020;28;20759;-61
2022/04/24 02:24:04;;;;;;;52.27;30.00;;;9.70;99.90;;;;;;5015064;23;20220;-62
2022/04/24 02:26:29;;;;;;;50.13;27.10;;;9.70;99.90;;;;;;5005290;28;20207;-60
2022/04/24 02:28:55;;;;;;;48.27;26.30;;;9.70;99.90;;;;;;4992516;28;20200;-62
2022/04/24 02:31:21;;;;;;;46.80;27.50;;;9.70;99.90;;;;;;4992088;28;20363;-59
2022/04/24 02:33:46;;;;;;;45.30;26.80;;;9.60;99.90;;;;;;5011468;28;20246;-61
2022/04/24 02:36:12;;;;;;;44.17;26.80;;;9.60;99.90;;;;;;5009700;28;20177;-61
2022/04/24 02:38:37;;;;;;;50.83;28.87;;;9.60;99.90;;;;;;5005597;28;20303;-59
2022/04/24 02:41:03;;;;;;;50.70;29.70;;;9.60;99.90;;;;;;5005884;28;20230;-60
2022/04/24 02:43:29;;;;;;;35.30;21.17;;;9.50;99.90;;;;;;5009265;28;20207;-61
2022/04/24 02:45:54;;;;;;;26.47;15.30;;;9.50;99.90;;;;;;5009431;28;20191;-61
2022/04/24 02:48:22;;;;;;;16.93;10.43;;;9.40;99.90;;;;;;5008231;28;20209;-59
2022/04/24 02:50:47;;;;;;;19.93;9.30;;;9.40;99.90;;;;;;5011669;28;20181;-60
2022/04/24 02:53:14;;;;;;;11.80;7.90;;;9.30;99.90;;;;;;5010840;28;20560;-60
2022/04/24 02:55:40;;;;;;;10.90;6.90;;;9.20;99.90;;;;;;5008769;28;20173;-61
2022/04/24 02:58:06;;;;;;;6.43;4.93;;;9.10;99.90;;;;;;5008969;28;20485;-61
2022/04/24 03:00:49;;;;;;;8.03;4.33;;;9.00;99.90;;;;;;5011355;28;20203;-60
2022/04/24 03:03:18;;;;;;;2.63;2.27;;;8.80;99.90;;;;;;5009454;28;20227;-60
2022/04/24 03:05:49;;;;;;;4.40;2.37;;;8.60;99.90;;;;;;5008375;28;20439;-61
2022/04/24 03:08:16;;;;;;;3.17;1.90;;;8.40;99.90;;;;;;4991666;28;20459;-61
2022/04/24 03:10:42;;;;;;;3.40;2.20;;;8.30;99.90;;;;;;5006567;28;20562;-60
2022/04/24 03:13:08;;;;;;;1.50;1.40;;;8.20;99.90;;;;;;5007133;28;20571;-61
2022/04/24 03:15:33;;;;;;;1.20;1.10;;;8.10;99.90;;;;;;5009643;28;20423;-61
2022/04/24 03:17:59;;;;;;;1.07;1.00;;;8.00;99.90;;;;;;5004323;28;20529;-61
2022/04/24 03:20:25;;;;;;;0.90;0.90;;;7.90;99.90;;;;;;5012419;28;20172;-61
2022/04/24 03:22:51;;;;;;;1.30;1.10;;;7.80;99.90;;;;;;5012233;28;20175;-60
2022/04/24 03:25:17;;;;;;;2.23;1.03;;;7.70;99.90;;;;;;4989395;28;20176;-61
2022/04/24 03:27:43;;;;;;;2.40;0.80;;;7.70;99.90;;;;;;5010478;28;20435;-60
2022/04/24 03:30:10;;;;;;;0.87;0.87;;;7.70;99.90;;;;;;5009717;28;20455;-61
2022/04/24 03:32:37;;;;;;;1.60;0.90;;;7.60;99.90;;;;;;5011743;28;20656;-62
2022/04/24 03:35:05;;;;;;;1.73;0.80;;;7.60;99.90;;;;;;4991484;28;20442;-61
2022/04/24 03:37:32;;;;;;;0.67;0.67;;;7.50;99.90;;;;;;5009981;28;20896;-61
2022/04/24 03:39:58;;;;;;;0.60;0.60;;;7.50;99.90;;;;;;4988091;28;20427;-58
2022/04/24 03:42:27;;;;;;;0.70;0.70;;;7.50;99.90;;;;;;5012927;28;20962;-62
2022/04/24 03:44:56;;;;;;;1.63;0.70;;;7.40;99.90;;;;;;5015242;28;20951;-59
2022/04/24 03:47:23;;;;;;;0.90;0.70;;;7.30;99.90;;;;;;4997918;28;20435;-59
2022/04/24 03:49:49;;;;;;;1.70;0.80;;;7.40;99.90;;;;;;4997182;28;20549;-59
2022/04/24 03:52:15;;;;;;;1.23;1.00;;;7.30;99.90;;;;;;5013223;28;20499;-61
2022/04/24 03:54:41;;;;;;;0.80;0.80;;;7.40;99.90;;;;;;5009216;28;20510;-61
2022/04/24 03:57:07;;;;;;;0.70;0.70;;;7.40;99.90;;;;;;5011229;28;20486;-63
2022/04/24 03:59:33;;;;;;;0.90;0.90;;;7.40;99.90;;;;;;4993801;28;20181;-61
2022/04/24 04:01:58;;;;;;;0.90;0.90;;;7.40;99.90;;;;;;4994432;28;20440;-61
2022/04/24 04:04:25;;;;;;;1.67;0.70;;;7.40;99.90;;;;;;4994585;28;20291;-59
2022/04/24 04:06:51;;;;;;;1.20;1.10;;;7.40;99.90;;;;;;5014726;28;20180;-62
2022/04/24 04:09:17;;;;;;;0.97;0.90;;;7.40;99.90;;;;;;5013624;28;20963;-62
2022/04/24 04:11:42;;;;;;;1.10;0.90;;;7.40;99.90;;;;;;4994534;28;20238;-61
2022/04/24 04:14:08;;;;;;;2.30;0.90;;;7.40;99.90;;;;;;5006818;28;20284;-60
2022/04/24 04:16:34;;;;;;;1.10;0.80;;;7.50;99.90;;;;;;5012652;28;20176;-61
2022/04/24 04:19:00;;;;;;;0.70;0.70;;;7.50;99.90;;;;;;5011914;28;20179;-60
2022/04/24 04:21:26;;;;;;;4.93;1.00;;;7.50;99.90;;;;;;5011526;28;20176;-60
2022/04/24 04:23:52;;;;;;;0.80;0.80;;;7.50;99.90;;;;;;5010485;28;20212;-60
2022/04/24 04:26:17;;;;;;;1.00;0.90;;;7.50;99.90;;;;;;4996430;28;20418;-59
2022/04/24 04:28:44;;;;;;;1.37;0.70;;;7.50;99.90;;;;;;5010134;28;20204;-61
2022/04/24 04:31:14;;;;;;;0.80;0.80;;;7.40;99.90;;;;;;4992781;28;20185;-61
2022/04/24 04:33:40;;;;;;;0.97;0.80;;;7.40;99.90;;;;;;4996950;28;20772;-60
2022/04/24 04:36:06;;;;;;;0.80;0.80;;;7.40;99.90;;;;;;5012374;28;20433;-61
2022/04/24 04:38:32;;;;;;;1.37;0.80;;;7.40;99.90;;;;;;5015556;28;20438;-62
2022/04/24 04:40:57;;;;;;;0.80;0.80;;;7.40;99.90;;;;;;5013475;28;20430;-61
2022/04/24 04:43:29;;;;;;;0.80;0.80;;;7.40;99.90;;;;;;5009978;28;20215;-58
2022/04/24 04:45:55;;;;;;;4.93;1.43;;;7.40;99.90;;;;;;5011420;28;20176;-61
2022/04/24 04:48:21;;;;;;;0.93;0.90;;;7.40;99.90;;;;;;4995606;28;20568;-60
2022/04/24 04:50:46;;;;;;;1.00;0.90;;;7.50;99.90;;;;;;5012815;28;20187;-60
2022/04/24 04:53:12;;;;;;;1.33;0.80;;;7.40;99.90;;;;;;5009770;28;20223;-62
2022/04/24 04:55:38;;;;;;;0.80;0.80;;;7.40;99.90;;;;;;5006335;28;20189;-59
2022/04/24 04:58:04;;;;;;;0.77;0.77;;;7.50;99.90;;;;;;5004146;28;20235;-58
2022/04/24 05:00:30;;;;;;;1.17;1.07;;;7.40;99.90;;;;;;5006906;28;20251;-58
2022/04/24 05:02:55;;;;;;;1.87;1.30;;;7.40;99.90;;;;;;5004352;28;21158;-59
2022/04/24 05:05:21;;;;;;;0.80;0.80;;;7.50;99.90;;;;;;5006857;28;20180;-61
2022/04/24 05:07:47;;;;;;;0.80;0.80;;;7.50;99.90;;;;;;5004166;28;20509;-59
2022/04/24 05:10:13;;;;;;;2.50;1.00;;;7.50;99.90;;;;;;5008306;28;20588;-62
2022/04/24 05:12:39;;;;;;;1.40;1.30;;;7.50;99.90;;;;;;5007835;28;20438;-59
2022/04/24 05:15:09;;;;;;;1.20;1.10;;;7.50;99.90;;;;;;4986055;28;20455;-56
2022/04/24 05:17:36;;;;;;;3.77;0.80;;;7.50;99.90;;;;;;4996354;28;20264;-59
2022/04/24 05:20:04;;;;;;;0.80;0.80;;;7.50;99.90;;;;;;5005963;28;20474;-60
2022/04/24 05:22:30;;;;;;;1.00;0.90;;;7.50;99.90;;;;;;5003438;28;20462;-62
2022/04/24 05:24:55;;;;;;;0.80;0.80;;;7.50;99.90;;;;;;5006139;28;20463;-59
2022/04/24 05:27:21;;;;;;;0.60;0.60;;;7.50;99.90;;;;;;5007794;28;20188;-62
2022/04/24 05:29:48;;;;;;;0.83;0.70;;;7.50;99.90;;;;;;4990426;28;20980;-58
2022/04/24 05:32:13;;;;;;;0.70;0.70;;;7.50;99.90;;;;;;5005797;28;20912;-61
2022/04/24 05:34:39;;;;;;;1.10;0.90;;;7.50;99.90;;;;;;5004311;28;20467;-59
2022/04/24 05:37:05;;;;;;;3.80;0.90;;;7.50;99.90;;;;;;5006184;28;20176;-60
2022/04/24 05:39:32;;;;;;;0.70;0.70;;;7.40;99.90;;;;;;5000541;28;20188;-60
2022/04/24 05:41:57;;;;;;;0.80;0.80;;;7.40;99.90;;;;;;5004646;28;20439;-61
2022/04/24 05:44:23;;;;;;;0.70;0.70;;;7.40;99.90;;;;;;5000420;28;20459;-61
2022/04/24 05:46:49;;;;;;;1.03;0.90;;;7.40;99.90;;;;;;5003108;28;20176;-59
2022/04/24 05:49:15;;;;;;;0.80;0.80;;;7.40;99.90;;;;;;5004594;28;20465;-60
2022/04/24 05:51:40;;;;;;;0.80;0.80;;;7.40;99.90;;;;;;4999952;28;20264;-60
2022/04/24 05:54:06;;;;;;;1.00;0.80;;;7.40;99.90;;;;;;5002719;28;20206;-61
2022/04/24 05:56:31;;;;;;;1.23;0.90;;;7.40;99.90;;;;;;5000842;28;20231;-59
2022/04/24 05:58:57;;;;;;;1.57;0.80;;;7.40;99.90;;;;;;5002275;28;20194;-60
2022/04/24 06:01:23;;;;;;;0.90;0.90;;;7.40;99.90;;;;;;5001067;28;20256;-61
2022/04/24 06:03:48;;;;;;;0.80;0.80;;;7.40;99.90;;;;;;4996117;28;20294;-61
2022/04/24 06:06:14;;;;;;;1.00;0.90;;;7.40;99.90;;;;;;4972889;28;20183;-60
2022/04/24 06:08:39;;;;;;;0.80;0.80;;;7.40;99.90;;;;;;5001848;28;20200;-60
2022/04/24 06:11:05;;;;;;;0.80;0.80;;;7.40;99.90;;;;;;4985571;28;20210;-59
2022/04/24 06:13:31;;;;;;;0.80;0.80;;;7.50;99.90;;;;;;5006142;28;20199;-59
2022/04/24 06:15:57;;;;;;;0.80;0.80;;;7.50;99.90;;;;;;4983296;28;20176;-57
2022/04/24 06:18:29;;;;;;;0.70;0.70;;;7.50;99.90;;;;;;4998175;28;20279;-58
2022/04/24 06:20:55;;;;;;;0.80;0.80;;;7.50;99.90;;;;;;4995824;28;20511;-59
2022/04/24 06:23:21;;;;;;;1.00;0.90;;;7.50;99.90;;;;;;4996057;28;20584;-60
2022/04/24 06:25:47;;;;;;;1.50;0.90;;;7.50;99.90;;;;;;4997636;28;21008;-59
2022/04/24 06:28:13;;;;;;;0.97;0.97;;;7.50;99.90;;;;;;4980373;28;20959;-59
2022/04/24 06:30:40;;;;;;;1.30;1.20;;;7.60;99.90;;;;;;5002859;28;20185;-59
2022/04/24 06:33:12;;;;;;;0.70;0.70;;;7.60;99.90;;;;;;5002068;28;20948;-59
2022/04/24 06:35:39;;;;;;;0.80;0.80;;;7.60;99.90;;;;;;5004910;28;20419;-61
2022/04/24 06:38:05;;;;;;;0.90;0.90;;;7.70;99.90;;;;;;5004307;28;20496;-59
2022/04/24 06:40:32;;;;;;;0.77;0.77;;;7.70;99.90;;;;;;5006121;28;20932;-59
2022/04/24 06:43:00;;;;;;;0.73;0.73;;;7.70;99.90;;;;;;4993862;28;20432;-61
2022/04/24 06:45:41;;;;;;;0.80;0.80;;;7.70;99.90;;;;;;4983014;28;21133;-59
2022/04/24 06:48:15;;;;;;;1.00;1.00;;;7.70;99.90;;;;;;5003395;28;20518;-59
2022/04/24 06:50:44;;;;;;;0.93;0.93;;;7.70;99.90;;;;;;5006467;28;20445;-59
2022/04/24 06:53:12;;;;;;;1.00;1.00;;;7.70;99.90;;;;;;5000503;28;20457;-59
2022/04/24 06:55:39;;;;;;;1.47;0.70;;;7.70;99.90;;;;;;5005242;28;20427;-59
2022/04/24 06:58:06;;;;;;;3.23;1.50;;;7.70;99.90;;;;;;5005530;28;20593;-61
2022/04/24 07:00:36;;;;;;;0.90;0.90;;;7.70;99.90;;;;;;5005934;28;20900;-59
2022/04/24 07:03:08;;;;;;;1.10;0.80;;;7.70;99.90;;;;;;5008385;28;21006;-59
2022/04/24 07:05:34;;;;;;;1.80;1.03;;;7.80;99.90;;;;;;5004698;28;20441;-58
2022/04/24 07:07:59;;;;;;;0.83;0.83;;;7.70;99.90;;;;;;5005425;28;20531;-60
2022/04/24 07:10:25;;;;;;;0.90;0.80;;;7.80;99.90;;;;;;5005231;28;20177;-58
2022/04/24 07:12:52;;;;;;;1.50;1.40;;;7.80;99.90;;;;;;4986721;28;20176;-60
2022/04/24 07:15:20;;;;;;;1.40;1.30;;;7.80;99.90;;;;;;5001677;28;20184;-59
2022/04/24 07:17:47;;;;;;;1.40;1.30;;;7.90;99.90;;;;;;5006903;28;20453;-58
2022/04/24 07:20:14;;;;;;;1.43;1.33;;;7.90;99.90;;;;;;5023483;28;20430;-60
2022/04/24 07:22:58;;;;;;;1.60;1.50;;;7.90;99.90;;;;;;5026418;28;20483;-60
2022/04/24 07:25:25;;;;;;;2.20;1.20;;;8.00;99.90;;;;;;4995690;28;20443;-59
2022/04/24 07:27:52;;;;;;;1.13;1.03;;;8.00;99.90;;;;;;5010519;28;20517;-59
2022/04/24 07:30:20;;;;;;;1.20;1.10;;;8.00;99.90;;;;;;5012494;28;21015;-61
2022/04/24 07:32:47;;;;;;;1.10;1.03;;;8.00;99.90;;;;;;5013539;28;20496;-60
2022/04/24 07:35:14;;;;;;;0.90;0.90;;;8.00;99.90;;;;;;5002647;28;20435;-59
2022/04/24 07:37:41;;;;;;;2.00;1.20;;;8.10;99.90;;;;;;5012653;28;20407;-61
2022/04/24 07:40:09;;;;;;;1.50;1.37;;;8.10;99.90;;;;;;5008764;28;20514;-60
2022/04/24 07:42:45;;;;;;;1.63;1.47;;;8.10;99.90;;;;;;4998106;28;20942;-59
2022/04/24 07:45:11;;;;;;;1.00;1.00;;;8.20;99.90;;;;;;5008145;28;20469;-59
2022/04/24 07:47:36;;;;;;;1.97;1.00;;;8.20;99.90;;;;;;4995052;28;20467;-59
2022/04/24 07:50:02;;;;;;;2.47;1.30;;;8.20;99.90;;;;;;5010332;28;20509;-58
2022/04/24 07:52:28;;;;;;;0.97;0.97;;;8.20;99.90;;;;;;5011506;28;20185;-59
2022/04/24 07:54:53;;;;;;;1.27;1.17;;;8.30;99.90;;;;;;5018205;28;20262;-59
2022/04/24 07:57:19;;;;;;;1.63;1.17;;;8.30;99.90;;;;;;5006282;28;20185;-60
2022/04/24 07:59:45;;;;;;;1.20;1.10;;;8.30;99.90;;;;;;5006868;28;20172;-58
2022/04/24 08:02:10;;;;;;;1.90;1.00;;;8.30;99.90;;;;;;4999765;28;20507;-59
2022/04/24 08:04:36;;;;;;;1.30;1.20;;;8.30;99.90;;;;;;4990368;28;20200;-60
2022/04/24 08:07:02;;;;;;;1.83;1.27;;;8.40;99.90;;;;;;5007027;28;20243;-59
2022/04/24 08:09:28;;;;;;;1.13;1.03;;;8.40;99.90;;;;;;4996073;28;20196;-59
2022/04/24 08:11:54;;;;;;;1.50;1.40;;;8.50;99.90;;;;;;5010954;28;20497;-58
2022/04/24 08:14:20;;;;;;;1.27;1.17;;;8.50;99.90;;;;;;5011905;28;20196;-59
2022/04/24 08:16:46;;;;;;;1.40;1.30;;;8.60;99.90;;;;;;4990953;28;20208;-59
2022/04/24 08:19:12;;;;;;;1.07;1.07;;;8.60;99.90;;;;;;5011822;28;20441;-59
2022/04/24 08:21:37;;;;;;;1.40;1.30;;;8.60;99.90;;;;;;5013438;28;20275;-59
2022/04/24 08:24:03;;;;;;;2.83;1.90;;;8.50;99.90;;;;;;4996018;28;20216;-59
2022/04/24 08:26:29;;;;;;;2.40;2.10;;;8.60;99.90;;;;;;5011865;28;20177;-59
2022/04/24 08:28:55;;;;;;;1.50;1.40;;;8.60;99.90;;;;;;5008938;28;20206;-59
2022/04/24 08:31:21;;;;;;;1.30;1.20;;;8.60;99.90;;;;;;5005482;28;20423;-60
2022/04/24 08:33:46;;;;;;;1.30;1.20;;;8.70;99.90;;;;;;5003140;22;20619;-60
2022/04/24 08:36:12;;;;;;;1.33;1.23;;;8.70;99.90;;;;;;5031099;28;20171;-61
2022/04/24 08:38:38;;;;;;;2.20;1.70;;;8.70;99.90;;;;;;5028712;28;20551;-61
2022/04/24 08:41:03;;;;;;;2.50;2.30;;;8.70;99.90;;;;;;5031434;28;20187;-62
2022/04/24 08:43:30;;;;;;;2.93;2.20;;;8.70;99.90;;;;;;5028177;28;20306;-61
2022/04/24 08:45:56;;;;;;;2.07;1.90;;;8.70;99.90;;;;;;5010945;28;20264;-61
2022/04/24 08:48:22;;;;;;;1.30;1.20;;;8.70;99.90;;;;;;5011809;28;20455;-61
2022/04/24 08:50:49;;;;;;;1.43;1.30;;;8.70;99.90;;;;;;5013081;28;21059;-61
2022/04/24 08:53:15;;;;;;;1.47;1.37;;;8.70;99.90;;;;;;5009690;28;20506;-61
2022/04/24 08:55:41;;;;;;;2.43;1.40;;;8.70;99.90;;;;;;5012665;28;20466;-62
2022/04/24 08:58:07;;;;;;;1.60;1.50;;;8.70;99.90;;;;;;5012072;28;20470;-62
2022/04/24 09:00:33;;;;;;;1.17;1.17;;;8.70;99.90;;;;;;4997448;28;20518;-61
2022/04/24 09:03:00;;;;;;;1.67;1.57;;;8.80;99.90;;;;;;5011188;28;20175;-61
2022/04/24 09:05:27;;;;;;;2.07;1.90;;;8.80;99.90;;;;;;5009125;28;20454;-61
2022/04/24 09:07:53;;;;;;;3.73;1.60;;;8.90;99.90;;;;;;5012682;28;20423;-61
2022/04/24 09:10:19;;;;;;;1.63;1.40;;;8.90;99.90;;;;;;5008868;28;20468;-61
2022/04/24 09:12:53;;;;;;;1.50;1.40;;;8.90;99.90;;;;;;5005598;28;20420;-62
2022/04/24 09:15:19;;;;;;;1.43;1.33;;;8.90;99.90;;;;;;5010838;28;20204;-61
2022/04/24 09:17:44;;;;;;;1.57;1.47;;;8.80;99.90;;;;;;5011430;28;20411;-61
2022/04/24 09:20:18;;;;;;;1.70;1.60;;;8.90;99.90;;;;;;5004875;28;20193;-61
2022/04/24 09:22:45;;;;;;;1.63;1.53;;;8.90;99.90;;;;;;5008814;28;20203;-61
2022/04/24 09:25:12;;;;;;;1.73;1.63;;;8.90;99.90;;;;;;4993001;28;20911;-61
2022/04/24 09:27:39;;;;;;;2.03;1.30;;;9.00;99.90;;;;;;5006968;28;21080;-61
2022/04/24 09:30:05;;;;;;;3.13;1.77;;;9.00;99.90;;;;;;5004224;28;20451;-61
2022/04/24 09:32:46;;;;;;;1.93;1.80;;;9.10;99.90;;;;;;5006846;28;20506;-60
2022/04/24 09:35:32;;;;;;;1.77;1.67;;;9.10;99.90;;;;;;4997654;28;20470;-57
2022/04/24 09:38:24;;;;;;;2.73;1.43;;;9.20;99.90;;;;;;5017745;28;20435;-62
2022/04/24 09:40:50;;;;;;;1.50;1.40;;;9.20;99.90;;;;;;5000076;28;20435;-61
2022/04/24 09:43:19;;;;;;;1.60;1.50;;;9.20;99.90;;;;;;5000090;28;20967;-61
2022/04/24 09:45:54;;;;;;;1.30;1.20;;;9.20;99.90;;;;;;5009189;28;20540;-61
2022/04/24 09:48:21;;;;;;;2.20;1.63;;;9.30;99.90;;;;;;4988766;28;20435;-60
2022/04/24 09:50:49;;;;;;;1.37;1.33;;;9.40;99.90;;;;;;5004335;28;20434;-61
2022/04/24 09:53:20;;;;;;;1.97;1.50;;;9.40;99.90;;;;;;5003858;28;20414;-62
2022/04/24 09:55:49;;;;;;;2.20;1.63;;;9.40;99.90;;;;;;4991796;28;20508;-62
2022/04/24 09:58:15;;;;;;;4.00;1.60;;;9.40;99.90;;;;;;5005835;28;20454;-61
2022/04/24 10:00:42;;;;;;;1.70;1.60;;;9.40;99.90;;;;;;5013330;28;20426;-61
2022/04/24 10:03:09;;;;;;;1.67;1.57;;;9.40;99.90;;;;;;5009245;28;20510;-61
2022/04/24 10:05:38;;;;;;;1.63;1.53;;;9.50;99.90;;;;;;5004385;28;20448;-60
2022/04/24 10:08:06;;;;;;;1.73;1.60;;;9.50;99.90;;;;;;5003050;28;20566;-61
2022/04/24 10:10:32;;;;;;;2.10;1.90;;;9.50;99.90;;;;;;4983899;28;20439;-61
2022/04/24 10:13:01;;;;;;;1.57;1.47;;;9.50;99.90;;;;;;5000080;28;20439;-61
2022/04/24 10:15:28;;;;;;;1.50;1.40;;;9.60;99.90;;;;;;4999288;28;20639;-61
2022/04/24 10:18:30;;;;;;;1.73;1.63;;;9.60;99.90;;;;;;5007469;28;20434;-61
2022/04/24 10:21:04;;;;;;;1.80;1.50;;;9.60;99.90;;;;;;5012526;28;20792;-60
2022/04/24 10:23:33;;;;;;;2.20;1.53;;;9.60;99.90;;;;;;4999408;28;20433;-61
2022/04/24 10:25:58;;;;;;;2.07;1.87;;;9.60;99.90;;;;;;5005562;28;20950;-61
2022/04/24 10:28:38;;;;;;;2.63;2.20;;;9.60;99.90;;;;;;4988712;28;20467;-61
2022/04/24 10:31:04;;;;;;;1.90;1.80;;;9.60;99.70;;;;;;4978332;28;20172;-61
2022/04/24 10:33:34;;;;;;;1.80;1.70;;;9.50;99.90;;;;;;5003886;28;21047;-61
2022/04/24 10:36:06;;;;;;;2.17;2.00;;;9.50;99.90;;;;;;5003606;28;20963;-60
2022/04/24 10:38:52;;;;;;;2.50;2.27;;;9.50;99.90;;;;;;4997210;28;21285;-61
2022/04/24 10:41:27;;;;;;;2.77;1.77;;;9.60;99.90;;;;;;5003260;28;20446;-62
2022/04/24 10:43:57;;;;;;;1.90;1.60;;;9.60;99.90;;;;;;4996748;28;21158;-61
2022/04/24 10:46:32;;;;;;;1.73;1.63;;;9.50;99.50;;;;;;4995050;28;20528;-61
2022/04/24 10:49:15;;;;;;;2.47;2.07;;;9.50;99.90;;;;;;4990101;28;20471;-61
2022/04/24 10:51:43;;;;;;;1.53;1.43;;;9.50;99.90;;;;;;5015273;28;20427;-62
2022/04/24 10:54:13;;;;;;;1.77;1.67;;;9.50;99.10;;;;;;5002343;28;20506;-61
2022/04/24 10:56:41;;;;;;;2.03;1.80;;;9.50;99.90;;;;;;4998985;28;20801;-61
2022/04/24 10:59:15;;;;;;;1.97;1.60;;;9.60;99.90;;;;;;5005834;28;20435;-61
2022/04/24 11:01:43;;;;;;;1.73;1.63;;;9.60;99.90;;;;;;5003379;28;20815;-62
2022/04/24 11:04:15;;;;;;;2.50;1.93;;;9.60;99.90;;;;;;4995527;28;21554;-61
2022/04/24 11:07:00;;;;;;;2.60;1.70;;;9.60;99.90;;;;;;5008434;28;20422;-61
2022/04/24 11:09:35;;;;;;;1.60;1.50;;;9.60;99.90;;;;;;5002149;28;20459;-61
2022/04/24 11:12:07;;;;;;;3.73;1.80;;;9.60;99.90;;;;;;4997688;28;20955;-60
2022/04/24 11:14:34;;;;;;;1.80;1.70;;;9.60;99.90;;;;;;5008813;28;20789;-61
2022/04/24 11:17:01;;;;;;;2.63;2.43;;;9.60;99.90;;;;;;5003578;28;20435;-60
2022/04/24 11:19:30;;;;;;;2.73;1.90;;;9.60;99.90;;;;;;4982207;28;20469;-60
2022/04/24 11:22:10;;;;;;;2.37;1.60;;;9.60;99.90;;;;;;4997943;28;20852;-61
2022/04/24 11:24:38;;;;;;;2.60;1.50;;;9.60;99.90;;;;;;5003444;28;20435;-60
2022/04/24 11:27:13;;;;;;;2.77;1.87;;;9.70;99.90;;;;;;4994626;28;20792;-61
2022/04/24 11:29:40;;;;;;;1.70;1.60;;;9.80;99.90;;;;;;4976255;28;22034;-61
2022/04/24 11:32:09;;;;;;;1.93;1.83;;;9.90;99.90;;;;;;5002921;28;20443;-61
2022/04/24 11:34:37;;;;;;;1.70;1.60;;;10.00;99.90;;;;;;4986859;28;20566;-61
2022/04/24 11:37:04;;;;;;;1.60;1.50;;;10.00;99.90;;;;;;5001356;28;20435;-61
2022/04/24 11:39:31;;;;;;;1.47;1.40;;;10.00;99.30;;;;;;5005421;28;20546;-61
2022/04/24 11:41:58;;;;;;;2.33;1.97;;;9.90;99.90;;;;;;4991521;28;20514;-62
2022/04/24 11:50:14;;;;;;;1.50;1.40;;;9.90;99.90;;;;;;5002518;28;21379;-61
2022/04/24 11:52:46;;;;;;;1.70;1.60;;;9.90;99.90;;;;;;4999754;28;20444;-61
2022/04/24 11:55:23;;;;;;;2.90;2.37;;;9.90;99.90;;;;;;5002617;28;20822;-60
2022/04/24 11:57:56;;;;;;;1.80;1.70;;;9.90;99.90;;;;;;5004176;28;20481;-60
2022/04/24 12:00:37;;;;;;;1.70;1.60;;;9.90;99.90;;;;;;5000884;28;20427;-60
2022/04/24 12:03:05;;;;;;;2.10;1.67;;;9.80;99.90;;;;;;4984608;28;20512;-60
2022/04/24 12:05:31;;;;;;;5.60;1.77;;;9.80;99.90;;;;;;5006721;28;20468;-60
2022/04/24 12:07:57;;;;;;;1.93;1.80;;;9.80;99.90;;;;;;5003511;28;20500;-60
2022/04/24 12:10:25;;;;;;;2.03;1.80;;;9.80;99.90;;;;;;5002913;28;20889;-61
2022/04/24 12:12:52;;;;;;;1.93;1.73;;;9.80;99.90;;;;;;5006240;28;20180;-60
2022/04/24 12:15:20;;;;;;;1.80;1.70;;;9.80;99.90;;;;;;5014347;28;20853;-61
2022/04/24 12:17:58;;;;;;;1.80;1.70;;;9.80;99.90;;;;;;5014069;28;20433;-62
2022/04/24 12:20:40;;;;;;;3.37;1.80;;;9.70;99.90;;;;;;5025517;28;20419;-62
2022/04/24 12:23:13;;;;;;;1.97;1.87;;;9.70;99.90;;;;;;5004868;28;20964;-60
2022/04/24 12:25:58;;;;;;;2.30;2.10;;;9.60;99.90;;;;;;5008952;28;20454;-61
2022/04/24 12:28:34;;;;;;;3.13;2.63;;;9.60;99.90;;;;;;5004727;28;20431;-62
2022/04/24 12:31:03;;;;;;;2.50;2.30;;;9.60;99.90;;;;;;5003203;28;20443;-61
2022/04/24 12:33:43;;;;;;;2.00;1.80;;;9.60;99.90;;;;;;5007052;28;20466;-61
2022/04/24 12:36:13;;;;;;;1.60;1.50;;;9.60;99.90;;;;;;5005872;28;20447;-61
2022/04/24 12:38:39;;;;;;;1.97;1.70;;;9.60;99.90;;;;;;5013939;28;20949;-61
2022/04/24 12:41:11;;;;;;;2.17;1.70;;;9.60;99.90;;;;;;5013443;28;20951;-61
2022/04/24 12:43:37;;;;;;;2.87;2.07;;;9.60;99.90;;;;;;4994148;28;20412;-62
2022/04/24 12:46:02;;;;;;;1.83;1.73;;;9.60;99.90;;;;;;5005451;28;20981;-61
2022/04/24 12:48:29;;;;;;;1.80;1.67;;;9.60;99.90;;;;;;5004417;28;20529;-62
2022/04/24 12:50:55;;;;;;;1.87;1.77;;;9.60;99.90;;;;;;5003462;28;20811;-61
2022/04/24 12:53:24;;;;;;;1.63;1.53;;;9.60;99.90;;;;;;4999210;28;20432;-61
2022/04/24 12:55:51;;;;;;;5.43;2.70;;;9.60;99.90;;;;;;5001083;28;20832;-61
2022/04/24 12:58:18;;;;;;;2.73;1.83;;;9.60;99.90;;;;;;5003120;28;20431;-58